Terminal Aerodrome Forecast
Issued by NWS Cleveland, OH

Home | Current Version | Previous Version | Graphics & Text | Print | Product List | Glossary On
Versions: 1 2 3 4 5 6 7 8 9 10 11 12 13 14 15 16 17 18 19 20
000
FTUS41 KCLE 281500 AAD
TAFCAK
TAF AMD
KCAK 281526Z 2815/2912 VRB03KT 5SM BR SCT250
     FM281700 VRB03KT P6SM SCT250
     FM290000 15006KT P6SM OVC250
     FM291000 15010G18KT P6SM OVC100=

USA.gov is the U.S. government's official web portal to all federal, state and local government web resources and services.